Almeria — A8WA7 — position and weather

sailwx.info

Track history (hours):
 
Tides and Currents Weather Stations Pressure Air Temp Water Temp Dewpoint Dewpoint Depression Visibility Wind Speed Wind Dir Waves Ship Positions

Almeria

Last reported at 2017-Dec-15 12:44 UTC. Time now 2017-Dec-16 15:04 UTC.
Position N 36°19' E 014°51'.

Length 190 m; draft 11.1 m.

Type: Ship. MMSI: 636014704.

Date/timePositionNaut miles runAvg speedWind from/ knotsBaromVisibWave heightAir tempDewpointWater temp
2017-Dec-15 12:44N 36°19' E 014°51'312.8
2017-Dec-15 12:30N 36°19' E 014°47'612.7
2017-Dec-15 12:00N 36°19' E 014°39'612.3
2017-Dec-15 11:30N 36°19' E 014°31'612.2
2017-Dec-15 10:59N 36°19' E 014°24'612.2
2017-Dec-15 10:30N 36°19' E 014°16'612.2
2017-Dec-15 10:00N 36°19' E 014°09'611.8
2017-Dec-15 09:30N 36°21' E 014°02'612.3
2017-Dec-15 09:00N 36°23' E 013°55'612.0
2017-Dec-15 08:29N 36°26' E 013°48'612.0
2017-Dec-15 07:59N 36°28' E 013°41'612.3
2017-Dec-15 07:30N 36°31' E 013°34'  
2017-Dec-12 20:42N 36°26' W 001°19'512.3
2017-Dec-12 20:16N 36°25' W 001°26'312.2
2017-Dec-12 20:00N 36°25' W 001°30'612.1
2017-Dec-12 19:30N 36°24' W 001°37'612.1
2017-Dec-12 19:00N 36°24' W 001°45'612.3
2017-Dec-12 18:31N 36°23' W 001°52'612.5
2017-Dec-12 18:00N 36°22' W 001°60'612.5
2017-Dec-12 17:30N 36°22' W 002°08'612.5
2017-Dec-12 17:00N 36°21' W 002°15'612.6
2017-Dec-12 16:30N 36°20' W 002°23'612.3
2017-Dec-12 16:01N 36°20' W 002°31'612.2
2017-Dec-12 15:31N 36°19' W 002°38'612.8
2017-Dec-12 15:01N 36°18' W 002°46'612.3
2017-Dec-12 14:30N 36°18' W 002°54'612.1
2017-Dec-12 14:00N 36°17' W 003°01'611.9
2017-Dec-12 13:30N 36°16' W 003°09'611.8
2017-Dec-12 13:01N 36°16' W 003°16'611.6
2017-Dec-12 12:30N 36°15' W 003°23'611.6
2017-Dec-12 12:00N 36°14' W 003°30'611.7
2017-Dec-12 11:31N 36°13' W 003°37'611.8
2017-Dec-12 11:00N 36°12' W 003°44'612.2
2017-Dec-12 10:31N 36°12' W 003°52'612.2
2017-Dec-12 10:01N 36°11' W 003°59'612.1
2017-Dec-12 09:30N 36°11' W 004°07'611.8
2017-Dec-12 09:00N 36°11' W 004°14'611.6
2017-Dec-12 08:30N 36°10' W 004°21'611.8
2017-Dec-12 08:01N 36°10' W 004°29'611.8
2017-Dec-12 07:30N 36°09' W 004°36'611.5
2017-Dec-12 07:00N 36°08' W 004°43'611.9
2017-Dec-12 06:30N 36°08' W 004°50'611.9
2017-Dec-12 06:00N 36°07' W 004°58'611.3
2017-Dec-12 05:30N 36°07' W 005°05'3 6.8
2017-Dec-12 05:00N 36°07' W 005°09'712.1
2017-Dec-12 04:24N 36°06' W 005°18'3 4.0
2017-Dec-12 03:37N 36°07' W 005°22'0 0.2
2017-Dec-12 03:28N 36°07' W 005°22'0 0.1
2017-Dec-12 02:57N 36°07' W 005°22'0 0.1
2017-Dec-12 02:30N 36°07' W 005°22'0 0.0
2017-Dec-12 02:00N 36°07' W 005°22'0 0.0
2017-Dec-12 01:30N 36°07' W 005°22'0 0.0
2017-Dec-12 01:00N 36°07' W 005°22'0 0.1
2017-Dec-12 00:30N 36°07' W 005°22'0 0.0
2017-Dec-11 23:59N 36°07' W 005°22'0 0.0
2017-Dec-11 23:27N 36°07' W 005°22'0 0.1
2017-Dec-11 22:57N 36°07' W 005°22'0 0.0
2017-Dec-11 22:27N 36°07' W 005°22'0 0.0
2017-Dec-11 21:59N 36°07' W 005°22'0 0.2
2017-Dec-11 21:27N 36°07' W 005°22'1 1.8
2017-Dec-11 21:00N 36°06' W 005°22'2 4.6
2017-Dec-11 20:30N 36°05' W 005°19'0 0.9
2017-Dec-11 20:00N 36°05' W 005°19'1 1.4
2017-Dec-11 19:27N 36°05' W 005°18'2 3.2
2017-Dec-11 18:57N 36°06' W 005°16'6 8.2
2017-Dec-11 18:16N 36°11' W 005°12'2 6.1
2017-Dec-11 18:00N 36°12' W 005°11'0 0.3
2017-Dec-11 17:30N 36°12' W 005°11'0 0.1
2017-Dec-11 16:56N 36°12' W 005°11'0 0.1
2017-Dec-11 16:29N 36°12' W 005°11'0 0.1
2017-Dec-11 15:55N 36°12' W 005°11'0 0.3
2017-Dec-11 15:29N 36°12' W 005°11'5211.5
2017-Dec-11 10:56N 35°55' W 006°12'512.8
2017-Dec-11 10:30N 35°55' W 006°18'612.6
2017-Dec-11 10:00N 35°56' W 006°26'612.1
2017-Dec-11 09:30N 35°57' W 006°33'611.6
2017-Dec-11 09:00N 35°58' W 006°40'611.9
2017-Dec-11 08:30N 35°59' W 006°48'611.9
2017-Dec-11 08:00N 36°01' W 006°55'612.1
2017-Dec-11 07:30N 36°02' W 007°02'611.9
2017-Dec-11 07:00N 36°03' W 007°09'611.9
2017-Dec-11 06:30N 36°04' W 007°17'612.2
2017-Dec-11 05:59N 36°05' W 007°25'611.8
2017-Dec-11 05:30N 36°06' W 007°31'612.0
2017-Dec-11 05:00N 36°07' W 007°39'612.1
2017-Dec-11 04:30N 36°08' W 007°46'612.3
2017-Dec-11 04:00N 36°09' W 007°53'612.2
2017-Dec-11 03:30N 36°10' W 008°01'612.2
2017-Dec-11 02:59N 36°12' W 008°09'  
2017-Dec-08 11:40N 38°30' W 023°40'411.4
2017-Dec-08 11:18N 38°31' W 023°45'311.5
2017-Dec-08 11:00N 38°31' W 023°50'611.4
2017-Dec-08 10:30N 38°32' W 023°57'611.3
2017-Dec-08 10:00N 38°33' W 024°04'611.5
2017-Dec-08 09:30N 38°34' W 024°11'611.5
2017-Dec-08 09:00N 38°35' W 024°18'711.4
2017-Dec-08 08:26N 38°37' W 024°26'511.0
2017-Dec-08 08:00N 38°37' W 024°32'511.0
2017-Dec-08 07:30N 38°39' W 024°39'510.7
2017-Dec-08 07:00N 38°39' W 024°46'510.6
2017-Dec-08 06:30N 38°41' W 024°53'510.5
2017-Dec-08 06:00N 38°42' W 024°59'510.8
2017-Dec-08 05:30N 38°43' W 025°06'510.9
2017-Dec-08 05:01N 38°44' W 025°13'510.6
2017-Dec-08 04:30N 38°44' W 025°20'510.7
2017-Dec-08 04:00N 38°45' W 025°26'510.6
2017-Dec-08 03:30N 38°46' W 025°33'510.9
2017-Dec-08 03:00N 38°47' W 025°40'611.0
2017-Dec-08 02:30N 38°49' W 025°47'611.2
2017-Dec-08 02:01N 38°49' W 025°54'510.8
2017-Dec-08 01:31N 38°51' W 026°01'510.7
2017-Dec-08 01:00N 38°51' W 026°08'510.5
2017-Dec-08 00:30N 38°52' W 026°14'510.4
2017-Dec-08 00:00N 38°53' W 026°21'510.6
2017-Dec-07 23:30N 38°54' W 026°27'611.1
2017-Dec-07 23:00N 38°55' W 026°34'711.2
2017-Dec-07 22:22N 38°57' W 026°44'411.4
2017-Dec-07 22:00N 38°57' W 026°49'611.3
2017-Dec-07 21:27N 38°58' W 026°57'511.2
2017-Dec-07 21:01N 38°59' W 027°03'611.1
2017-Dec-07 20:30N 39°00' W 027°10'611.1
2017-Dec-07 20:00N 39°01' W 027°17'611.5
2017-Dec-07 19:30N 39°03' W 027°24'611.4
2017-Dec-07 19:00N 39°04' W 027°31'611.2
2017-Dec-07 18:30N 39°05' W 027°39'611.1
2017-Dec-07 18:00N 39°06' W 027°46'611.2
2017-Dec-07 17:30N 39°07' W 027°53'611.2
2017-Dec-07 17:01N 39°08' W 027°60'611.1
2017-Dec-07 16:30N 39°09' W 028°07'611.0
2017-Dec-07 16:00N 39°10' W 028°14'611.0
2017-Dec-07 15:30N 39°11' W 028°21'611.1
2017-Dec-07 15:00N 39°12' W 028°28'611.0
2017-Dec-07 14:30N 39°14' W 028°35'611.4
2017-Dec-07 14:00N 39°15' W 028°42'611.2
2017-Dec-07 13:30N 39°16' W 028°49'510.7
2017-Dec-07 13:00N 39°17' W 028°56'511.0
2017-Dec-07 12:30N 39°18' W 029°03'611.1
2017-Dec-07 12:00N 39°19' W 029°10'611.1
2017-Dec-07 11:30N 39°20' W 029°17'510.7
2017-Dec-07 11:00N 39°21' W 029°23'510.6
2017-Dec-07 10:30N 39°22' W 029°30'510.5
2017-Dec-07 10:00N 39°23' W 029°37'510.6
2017-Dec-07 09:31N 39°24' W 029°43'510.5
2017-Dec-07 09:00N 39°25' W 029°50'510.7
2017-Dec-07 08:30N 39°26' W 029°57'510.7
2017-Dec-07 08:01N 39°27' W 030°04'510.6
2017-Dec-07 07:30N 39°29' W 030°11'510.7
2017-Dec-07 07:00N 39°30' W 030°17'510.5
2017-Dec-07 06:30N 39°31' W 030°24'510.2
2017-Dec-07 05:59N 39°33' W 030°30'1410.5
2017-Dec-07 04:41N 39°34' W 030°48'210.6
2017-Dec-07 04:28N 39°34' W 030°51'510.9
2017-Dec-07 04:01N 39°35' W 030°57'711.1
2017-Dec-07 03:25N 39°36' W 031°06'511.4
2017-Dec-07 03:00N 39°36' W 031°12'611.1
2017-Dec-07 02:30N 39°36' W 031°19'510.8
2017-Dec-07 02:00N 39°37' W 031°26'510.0
2017-Dec-07 01:30N 39°37' W 031°33'5 9.8
2017-Dec-07 01:01N 39°37' W 031°39'510.0
2017-Dec-07 00:30N 39°37' W 031°45'5 9.6
2017-Dec-07 00:01N 39°38' W 031°52'5 9.5
2017-Dec-06 23:30N 39°38' W 031°58'510.0
2017-Dec-06 23:00N 39°38' W 032°04'  
Track history (hours):
 
Tides and Currents Weather Stations Pressure Air Temp Water Temp Dewpoint Dewpoint Depression Visibility Wind Speed Wind Dir Waves Ship Positions

Almeria

Last reported at 2017-Dec-15 12:44 UTC. Time now 2017-Dec-16 15:04 UTC.
Position N 36°19' E 014°51'.

Length 190 m; draft 11.1 m.

Type: Ship. MMSI: 636014704.

Date/timePositionNaut miles runAvg speedWind from/ knotsBaromVisibWave heightAir tempDewpointWater temp
2017-Dec-15 12:44N 36°19' E 014°51'312.8
2017-Dec-15 12:30N 36°19' E 014°47'612.7
2017-Dec-15 12:00N 36°19' E 014°39'612.3
2017-Dec-15 11:30N 36°19' E 014°31'612.2
2017-Dec-15 10:59N 36°19' E 014°24'612.2
2017-Dec-15 10:30N 36°19' E 014°16'612.2
2017-Dec-15 10:00N 36°19' E 014°09'611.8
2017-Dec-15 09:30N 36°21' E 014°02'612.3
2017-Dec-15 09:00N 36°23' E 013°55'612.0
2017-Dec-15 08:29N 36°26' E 013°48'612.0
2017-Dec-15 07:59N 36°28' E 013°41'612.3
2017-Dec-15 07:30N 36°31' E 013°34'  
2017-Dec-12 20:42N 36°26' W 001°19'512.3
2017-Dec-12 20:16N 36°25' W 001°26'312.2
2017-Dec-12 20:00N 36°25' W 001°30'612.1
2017-Dec-12 19:30N 36°24' W 001°37'612.1
2017-Dec-12 19:00N 36°24' W 001°45'612.3
2017-Dec-12 18:31N 36°23' W 001°52'612.5
2017-Dec-12 18:00N 36°22' W 001°60'612.5
2017-Dec-12 17:30N 36°22' W 002°08'612.5
2017-Dec-12 17:00N 36°21' W 002°15'612.6
2017-Dec-12 16:30N 36°20' W 002°23'612.3
2017-Dec-12 16:01N 36°20' W 002°31'612.2
2017-Dec-12 15:31N 36°19' W 002°38'612.8
2017-Dec-12 15:01N 36°18' W 002°46'612.3
2017-Dec-12 14:30N 36°18' W 002°54'612.1
2017-Dec-12 14:00N 36°17' W 003°01'611.9
2017-Dec-12 13:30N 36°16' W 003°09'611.8
2017-Dec-12 13:01N 36°16' W 003°16'611.6
2017-Dec-12 12:30N 36°15' W 003°23'611.6
2017-Dec-12 12:00N 36°14' W 003°30'611.7
2017-Dec-12 11:31N 36°13' W 003°37'611.8
2017-Dec-12 11:00N 36°12' W 003°44'612.2
2017-Dec-12 10:31N 36°12' W 003°52'612.2
2017-Dec-12 10:01N 36°11' W 003°59'612.1
2017-Dec-12 09:30N 36°11' W 004°07'611.8
2017-Dec-12 09:00N 36°11' W 004°14'611.6
2017-Dec-12 08:30N 36°10' W 004°21'611.8
2017-Dec-12 08:01N 36°10' W 004°29'611.8
2017-Dec-12 07:30N 36°09' W 004°36'611.5
2017-Dec-12 07:00N 36°08' W 004°43'611.9
2017-Dec-12 06:30N 36°08' W 004°50'611.9
2017-Dec-12 06:00N 36°07' W 004°58'611.3
2017-Dec-12 05:30N 36°07' W 005°05'3 6.8
2017-Dec-12 05:00N 36°07' W 005°09'712.1
2017-Dec-12 04:24N 36°06' W 005°18'3 4.0
2017-Dec-12 03:37N 36°07' W 005°22'0 0.2
2017-Dec-12 03:28N 36°07' W 005°22'0 0.1
2017-Dec-12 02:57N 36°07' W 005°22'0 0.1
2017-Dec-12 02:30N 36°07' W 005°22'0 0.0
2017-Dec-12 02:00N 36°07' W 005°22'0 0.0
2017-Dec-12 01:30N 36°07' W 005°22'0 0.0
2017-Dec-12 01:00N 36°07' W 005°22'0 0.1
2017-Dec-12 00:30N 36°07' W 005°22'0 0.0
2017-Dec-11 23:59N 36°07' W 005°22'0 0.0
2017-Dec-11 23:27N 36°07' W 005°22'0 0.1
2017-Dec-11 22:57N 36°07' W 005°22'0 0.0
2017-Dec-11 22:27N 36°07' W 005°22'0 0.0
2017-Dec-11 21:59N 36°07' W 005°22'0 0.2
2017-Dec-11 21:27N 36°07' W 005°22'1 1.8
2017-Dec-11 21:00N 36°06' W 005°22'2 4.6
2017-Dec-11 20:30N 36°05' W 005°19'0 0.9
2017-Dec-11 20:00N 36°05' W 005°19'1 1.4
2017-Dec-11 19:27N 36°05' W 005°18'2 3.2
2017-Dec-11 18:57N 36°06' W 005°16'6 8.2
2017-Dec-11 18:16N 36°11' W 005°12'2 6.1
2017-Dec-11 18:00N 36°12' W 005°11'0 0.3
2017-Dec-11 17:30N 36°12' W 005°11'0 0.1
2017-Dec-11 16:56N 36°12' W 005°11'0 0.1
2017-Dec-11 16:29N 36°12' W 005°11'0 0.1
2017-Dec-11 15:55N 36°12' W 005°11'0 0.3
2017-Dec-11 15:29N 36°12' W 005°11'5211.5
2017-Dec-11 10:56N 35°55' W 006°12'512.8
2017-Dec-11 10:30N 35°55' W 006°18'612.6
2017-Dec-11 10:00N 35°56' W 006°26'612.1
2017-Dec-11 09:30N 35°57' W 006°33'611.6
2017-Dec-11 09:00N 35°58' W 006°40'611.9
2017-Dec-11 08:30N 35°59' W 006°48'611.9
2017-Dec-11 08:00N 36°01' W 006°55'612.1
2017-Dec-11 07:30N 36°02' W 007°02'611.9
2017-Dec-11 07:00N 36°03' W 007°09'611.9
2017-Dec-11 06:30N 36°04' W 007°17'612.2
2017-Dec-11 05:59N 36°05' W 007°25'611.8
2017-Dec-11 05:30N 36°06' W 007°31'612.0
2017-Dec-11 05:00N 36°07' W 007°39'612.1
2017-Dec-11 04:30N 36°08' W 007°46'612.3
2017-Dec-11 04:00N 36°09' W 007°53'612.2
2017-Dec-11 03:30N 36°10' W 008°01'612.2
2017-Dec-11 02:59N 36°12' W 008°09'  
2017-Dec-08 11:40N 38°30' W 023°40'411.4
2017-Dec-08 11:18N 38°31' W 023°45'311.5
2017-Dec-08 11:00N 38°31' W 023°50'611.4
2017-Dec-08 10:30N 38°32' W 023°57'611.3
2017-Dec-08 10:00N 38°33' W 024°04'611.5
2017-Dec-08 09:30N 38°34' W 024°11'611.5
2017-Dec-08 09:00N 38°35' W 024°18'711.4
2017-Dec-08 08:26N 38°37' W 024°26'511.0
2017-Dec-08 08:00N 38°37' W 024°32'511.0
2017-Dec-08 07:30N 38°39' W 024°39'510.7
2017-Dec-08 07:00N 38°39' W 024°46'510.6
2017-Dec-08 06:30N 38°41' W 024°53'510.5
2017-Dec-08 06:00N 38°42' W 024°59'510.8
2017-Dec-08 05:30N 38°43' W 025°06'510.9
2017-Dec-08 05:01N 38°44' W 025°13'510.6
2017-Dec-08 04:30N 38°44' W 025°20'510.7
2017-Dec-08 04:00N 38°45' W 025°26'510.6
2017-Dec-08 03:30N 38°46' W 025°33'510.9
2017-Dec-08 03:00N 38°47' W 025°40'611.0
2017-Dec-08 02:30N 38°49' W 025°47'611.2
2017-Dec-08 02:01N 38°49' W 025°54'510.8
2017-Dec-08 01:31N 38°51' W 026°01'510.7
2017-Dec-08 01:00N 38°51' W 026°08'510.5
2017-Dec-08 00:30N 38°52' W 026°14'510.4
2017-Dec-08 00:00N 38°53' W 026°21'510.6
2017-Dec-07 23:30N 38°54' W 026°27'611.1
2017-Dec-07 23:00N 38°55' W 026°34'711.2
2017-Dec-07 22:22N 38°57' W 026°44'411.4
2017-Dec-07 22:00N 38°57' W 026°49'611.3
2017-Dec-07 21:27N 38°58' W 026°57'511.2
2017-Dec-07 21:01N 38°59' W 027°03'611.1
2017-Dec-07 20:30N 39°00' W 027°10'611.1
2017-Dec-07 20:00N 39°01' W 027°17'611.5
2017-Dec-07 19:30N 39°03' W 027°24'611.4
2017-Dec-07 19:00N 39°04' W 027°31'611.2
2017-Dec-07 18:30N 39°05' W 027°39'611.1
2017-Dec-07 18:00N 39°06' W 027°46'611.2
2017-Dec-07 17:30N 39°07' W 027°53'611.2
2017-Dec-07 17:01N 39°08' W 027°60'611.1
2017-Dec-07 16:30N 39°09' W 028°07'611.0
2017-Dec-07 16:00N 39°10' W 028°14'611.0
2017-Dec-07 15:30N 39°11' W 028°21'611.1
2017-Dec-07 15:00N 39°12' W 028°28'611.0
2017-Dec-07 14:30N 39°14' W 028°35'611.4
2017-Dec-07 14:00N 39°15' W 028°42'611.2
2017-Dec-07 13:30N 39°16' W 028°49'510.7
2017-Dec-07 13:00N 39°17' W 028°56'511.0
2017-Dec-07 12:30N 39°18' W 029°03'611.1
2017-Dec-07 12:00N 39°19' W 029°10'611.1
2017-Dec-07 11:30N 39°20' W 029°17'510.7
2017-Dec-07 11:00N 39°21' W 029°23'510.6
2017-Dec-07 10:30N 39°22' W 029°30'510.5
2017-Dec-07 10:00N 39°23' W 029°37'510.6
2017-Dec-07 09:31N 39°24' W 029°43'510.5
2017-Dec-07 09:00N 39°25' W 029°50'510.7
2017-Dec-07 08:30N 39°26' W 029°57'510.7
2017-Dec-07 08:01N 39°27' W 030°04'510.6
2017-Dec-07 07:30N 39°29' W 030°11'510.7
2017-Dec-07 07:00N 39°30' W 030°17'510.5
2017-Dec-07 06:30N 39°31' W 030°24'510.2
2017-Dec-07 05:59N 39°33' W 030°30'1410.5
2017-Dec-07 04:41N 39°34' W 030°48'210.6
2017-Dec-07 04:28N 39°34' W 030°51'510.9
2017-Dec-07 04:01N 39°35' W 030°57'711.1
2017-Dec-07 03:25N 39°36' W 031°06'511.4
2017-Dec-07 03:00N 39°36' W 031°12'611.1
2017-Dec-07 02:30N 39°36' W 031°19'510.8
2017-Dec-07 02:00N 39°37' W 031°26'510.0
2017-Dec-07 01:30N 39°37' W 031°33'5 9.8
2017-Dec-07 01:01N 39°37' W 031°39'510.0
2017-Dec-07 00:30N 39°37' W 031°45'5 9.6
2017-Dec-07 00:01N 39°38' W 031°52'5 9.5
2017-Dec-06 23:30N 39°38' W 031°58'510.0
2017-Dec-06 23:00N 39°38' W 032°04'  

Dump ship's entire track history